Time;durP1;ratioP1;P1;durP2;ratioP2;P2;SDS_P1;SDS_P2;PMS_P1;PMS_P2;Temp;Humidity;BMP_temperature;BMP_pressure;BME280_temperature;BME280_humidity;BME280_pressure;Samples;Min_cycle;Max_cycle;Signal;HPM_P1;HPM_P2
2022/10/25 00:00:11;;;;;;;;;2.00;0.00;;;;;15.59;72.92;101258.69;4979312;28;45379;-75
2022/10/25 00:02:36;;;;;;;;;2.00;0.75;;;;;15.56;72.70;101261.44;4996071;28;45369;-75
2022/10/25 00:05:03;;;;;;;;;2.50;0.00;;;;;15.52;73.01;101259.03;4995046;28;73053;-75
2022/10/25 00:07:28;;;;;;;;;0.50;0.00;;;;;15.52;72.94;101259.03;4996168;28;45444;-75
2022/10/25 00:09:54;;;;;;;;;2.75;0.75;;;;;15.53;73.00;101266.00;4995179;28;68682;-75
2022/10/25 00:12:19;;;;;;;;;0.00;0.00;;;;;15.53;73.31;101258.97;4994789;28;72886;-75
2022/10/25 00:14:44;;;;;;;;;1.75;0.50;;;;;15.54;72.93;101265.91;4994344;28;72545;-75
2022/10/25 00:17:10;;;;;;;;;2.00;0.75;;;;;15.56;72.88;101264.06;4979444;28;45366;-75
2022/10/25 00:19:35;;;;;;;;;0.00;0.00;;;;;15.55;72.85;101264.16;4995661;28;45559;-75
2022/10/25 00:22:00;;;;;;;;;0.75;0.75;;;;;15.55;73.39;101277.28;4995760;28;45826;-75
2022/10/25 00:24:26;;;;;;;;;0.75;0.00;;;;;15.55;72.82;101272.03;4994987;28;59604;-75
2022/10/25 00:26:51;;;;;;;;;0.25;0.25;;;;;15.56;73.01;101268.47;5032730;28;45369;-75
2022/10/25 00:29:17;;;;;;;;;0.50;0.50;;;;;15.57;73.09;101272.81;5057580;28;45343;-75
2022/10/25 00:31:42;;;;;;;;;3.00;0.00;;;;;15.54;72.90;101276.41;5039690;28;45464;-75
2022/10/25 00:34:08;;;;;;;;;1.00;1.00;;;;;15.54;73.07;101267.69;5039566;28;45324;-75
2022/10/25 00:36:33;;;;;;;;;1.00;0.00;;;;;15.53;73.11;101271.25;5056756;28;69363;-75
2022/10/25 00:38:59;;;;;;;;;3.00;2.00;;;;;15.52;73.35;101283.47;5038641;28;71812;-75
2022/10/25 00:41:28;;;;;;;;;1.50;0.00;;;;;15.48;73.18;101280.13;5057527;28;45963;-75
2022/10/25 00:43:56;;;;;;;;;2.50;0.50;;;;;15.48;73.35;101277.50;5057056;28;45782;-75
2022/10/25 00:46:27;;;;;;;;;2.50;0.00;;;;;15.45;73.37;101274.16;5039493;28;45666;-75
2022/10/25 00:48:58;;;;;;;;;1.00;0.25;;;;;15.42;73.76;101276.91;5038686;28;45360;-75
2022/10/25 00:51:51;;;;;;;;;1.00;0.00;;;;;15.40;73.44;101284.84;5057439;28;45397;-75
2022/10/25 00:54:22;;;;;;;;;4.00;0.50;;;;;15.39;73.95;101277.03;5039264;28;45315;-75
2022/10/25 00:56:49;;;;;;;;;2.25;1.00;;;;;15.38;73.42;101284.06;5039662;28;45371;-75
2022/10/25 00:59:19;;;;;;;;;2.50;0.00;;;;;15.36;73.84;101280.66;5055990;28;69496;-75
2022/10/25 01:01:44;;;;;;;;;1.50;0.25;;;;;15.32;73.67;101286.06;5039309;28;46450;-75
2022/10/25 01:04:12;;;;;;;;;0.00;0.00;;;;;15.32;73.74;101286.06;5038443;28;69753;-75
2022/10/25 01:06:40;;;;;;;;;1.50;1.25;;;;;15.28;74.01;101286.22;5039383;28;45468;-76
2022/10/25 01:09:07;;;;;;;;;2.00;1.00;;;;;15.25;74.33;101288.09;5057255;28;45551;-75
2022/10/25 01:11:34;;;;;;;;;3.25;1.00;;;;;15.24;74.64;101287.22;5038734;28;46164;-75
2022/10/25 01:14:00;;;;;;;;;1.75;1.00;;;;;15.22;74.40;101280.34;5056991;28;45350;-75
2022/10/25 01:16:47;;;;;;;;;1.75;0.50;;;;;15.21;74.86;101278.63;5038711;28;47374;-75
2022/10/25 01:19:15;;;;;;;;;2.50;0.00;;;;;15.21;74.47;101281.25;5056970;28;45410;-75
2022/10/25 01:21:48;;;;;;;;;0.50;0.00;;;;;15.22;74.33;101286.44;5057014;28;45450;-75
2022/10/25 01:24:41;;;;;;;;;0.00;0.00;;;;;15.22;75.11;101288.22;5039006;28;46156;-75
2022/10/25 01:27:13;;;;;;;;;1.00;0.75;;;;;15.20;74.99;101285.63;5056702;28;45513;-75
2022/10/25 01:29:59;;;;;;;;;1.50;0.00;;;;;15.23;74.75;101289.91;5057097;28;45411;-75
2022/10/25 01:33:15;;;;;;;;;4.00;1.00;;;;;15.21;74.49;101284.75;5056733;28;45356;-75
2022/10/25 01:35:59;;;;;;;;;1.75;1.00;;;;;15.20;74.62;101277.78;4974644;28;45607;-75
2022/10/25 01:38:46;;;;;;;;;1.75;1.00;;;;;15.22;74.69;101285.59;4975070;28;45583;-75
2022/10/25 01:41:23;;;;;;;;;2.00;0.00;;;;;15.17;74.46;101275.25;4958435;28;45632;-75
2022/10/25 01:44:06;;;;;;;;;0.25;0.25;;;;;15.17;74.55;101282.28;4982931;28;46378;-75
2022/10/25 01:46:53;;;;;;;;;0.00;0.00;;;;;15.16;74.77;101276.19;4994595;28;45744;-75
2022/10/25 01:49:34;;;;;;;;;0.00;0.00;;;;;15.20;74.53;101285.63;4994418;28;45544;-75
2022/10/25 01:52:01;;;;;;;;;2.00;1.00;;;;;15.20;73.94;101277.78;4978152;28;45353;-75
2022/10/25 01:54:27;;;;;;;;;1.25;1.00;;;;;15.20;74.02;101276.94;4994213;28;47466;-75
2022/10/25 01:57:10;;;;;;;;;1.00;0.25;;;;;15.16;74.29;101276.19;4994071;28;45394;-75
2022/10/25 01:59:49;;;;;;;;;3.50;1.00;;;;;15.15;73.89;101284.09;4994128;28;45407;-75
2022/10/25 02:02:31;;;;;;;;;0.75;0.75;;;;;15.12;73.62;101285.09;4978038;28;45504;-75
2022/10/25 02:05:14;;;;;;;;;1.00;1.00;;;;;15.15;73.72;101284.09;4977776;28;46395;-75
2022/10/25 02:07:42;;;;;;;;;0.25;0.00;;;;;15.19;73.79;101283.06;4994241;28;45692;-75
2022/10/25 02:10:27;;;;;;;;;2.00;0.25;;;;;15.20;73.26;101279.53;4978384;28;45513;-75
2022/10/25 02:13:17;;;;;;;;;0.00;0.00;;;;;15.19;73.45;101283.94;5038320;28;45361;-75
2022/10/25 02:16:00;;;;;;;;;0.50;0.00;;;;;15.16;73.09;101288.47;5055958;28;46046;-75
2022/10/25 02:18:29;;;;;;;;;3.00;1.00;;;;;15.16;73.48;101291.94;5056143;28;45232;-75
2022/10/25 02:20:55;;;;;;;;;2.00;0.75;;;;;15.12;73.21;101290.34;5038186;28;45419;-75
2022/10/25 02:23:22;;;;;;;;;0.00;0.00;;;;;15.13;73.43;101294.66;5056195;28;45351;-75
2022/10/25 02:25:48;;;;;;;;;2.00;0.00;;;;;15.13;73.11;101293.81;5036631;28;75572;-75
2022/10/25 02:28:16;;;;;;;;;2.75;0.25;;;;;15.10;73.14;101300.03;5038071;28;45810;-75
2022/10/25 02:30:42;;;;;;;;;0.50;0.00;;;;;15.07;73.02;101298.38;5038204;28;45411;-75
2022/10/25 02:33:08;;;;;;;;;1.50;0.00;;;;;15.07;73.63;101302.78;5038240;28;45375;-75
2022/10/25 02:35:34;;;;;;;;;1.00;0.50;;;;;15.05;73.29;101294.97;5037535;28;47367;-75
2022/10/25 02:38:00;;;;;;;;;1.00;1.00;;;;;15.04;73.51;101297.63;5054883;28;73296;-75
2022/10/25 02:40:26;;;;;;;;;1.00;1.00;;;;;15.09;73.76;101295.69;5037049;28;55596;-75
2022/10/25 02:42:51;;;;;;;;;0.00;0.00;;;;;15.12;73.19;101292.09;5037361;28;53361;-75
2022/10/25 02:45:16;;;;;;;;;1.00;1.00;;;;;15.15;73.38;101291.97;5055480;28;46121;-75
2022/10/25 02:47:42;;;;;;;;;1.00;0.00;;;;;15.17;73.50;101292.78;5055736;28;45437;-75
2022/10/25 02:50:07;;;;;;;;;2.00;1.00;;;;;15.18;73.30;101286.63;5054814;28;68229;-75
2022/10/25 02:52:33;;;;;;;;;0.00;0.00;;;;;15.22;73.58;101290.81;5055672;28;45382;-75
2022/10/25 02:54:58;;;;;;;;;2.00;1.00;;;;;15.25;73.46;101288.94;5054560;28;61088;-75
2022/10/25 02:57:23;;;;;;;;;2.25;0.50;;;;;15.28;73.63;101290.56;5055374;28;53344;-75
2022/10/25 02:59:49;;;;;;;;;1.00;1.00;;;;;15.29;73.51;101294.91;5055215;28;52073;-75
2022/10/25 03:02:14;;;;;;;;;2.00;1.00;;;;;15.31;73.66;101290.47;5054764;28;69569;-75
2022/10/25 03:04:40;;;;;;;;;0.00;0.00;;;;;15.34;73.49;101292.09;5054562;28;71746;-75
2022/10/25 03:07:05;;;;;;;;;0.00;0.00;;;;;15.37;73.32;101289.38;5054664;28;66045;-75
2022/10/25 03:09:30;;;;;;;;;0.75;0.75;;;;;15.38;73.56;101289.31;5054565;28;59755;-75
2022/10/25 03:11:56;;;;;;;;;2.75;1.00;;;;;15.41;73.19;101291.78;5056005;28;45181;-75
2022/10/25 03:14:21;;;;;;;;;0.50;0.00;;;;;15.44;73.10;101296.91;5058900;28;47446;-75
2022/10/25 03:16:47;;;;;;;;;4.00;0.00;;;;;15.46;72.84;101296.88;5058990;28;45212;-75
2022/10/25 03:19:12;;;;;;;;;2.75;0.25;;;;;15.48;72.62;101295.03;5058641;28;45409;-75
2022/10/25 03:21:37;;;;;;;;;0.00;0.00;;;;;15.51;72.53;101296.66;5058139;28;65626;-75
2022/10/25 03:24:03;;;;;;;;;1.00;0.00;;;;;15.54;72.65;101289.53;5040448;28;46757;-75
2022/10/25 03:26:28;;;;;;;;;0.00;0.00;;;;;15.54;72.24;101302.63;5058785;28;45311;-75
2022/10/25 03:28:53;;;;;;;;;1.00;1.00;;;;;15.55;71.87;101299.13;5040995;28;45354;-75
2022/10/25 03:31:19;;;;;;;;;0.00;0.00;;;;;15.56;72.45;101308.69;5058182;28;59318;-75
2022/10/25 03:33:45;;;;;;;;;1.75;1.00;;;;;15.57;71.93;101299.91;5040521;28;46221;-75
2022/10/25 03:36:11;;;;;;;;;1.25;1.25;;;;;15.59;71.90;101297.22;5040526;28;45359;-75
2022/10/25 03:38:36;;;;;;;;;3.25;0.75;;;;;15.59;71.98;101313.81;5058286;28;45727;-75
2022/10/25 03:41:01;;;;;;;;;4.50;0.00;;;;;15.60;72.32;101315.53;5058837;28;45514;-75
2022/10/25 03:43:27;;;;;;;;;0.00;0.00;;;;;15.66;71.84;101309.19;5039238;28;75343;-75
2022/10/25 03:45:52;;;;;;;;;2.00;1.00;;;;;15.69;72.14;101311.66;5058510;28;45768;-75
2022/10/25 03:48:17;;;;;;;;;3.50;0.25;;;;;15.72;71.63;101314.16;5057509;28;69420;-75
2022/10/25 03:50:43;;;;;;;;;1.00;0.00;;;;;15.76;71.89;101317.53;5058478;28;45382;-75
2022/10/25 03:53:08;;;;;;;;;2.00;1.00;;;;;15.75;71.57;101321.06;5058068;28;46498;-75
2022/10/25 03:55:34;;;;;;;;;1.75;1.00;;;;;15.76;72.07;101334.13;5040157;28;45394;-75
2022/10/25 03:57:59;;;;;;;;;1.00;1.00;;;;;15.76;71.67;101320.16;5058521;28;45287;-75
2022/10/25 04:00:26;;;;;;;;;2.00;0.50;;;;;15.77;71.69;101324.53;5057422;28;68604;-75
2022/10/25 04:02:56;;;;;;;;;5.00;1.00;;;;;15.77;71.81;101324.53;5058230;28;46822;-75
2022/10/25 04:05:21;;;;;;;;;4.00;0.50;;;;;15.77;71.54;101320.13;5040189;28;45411;-75
2022/10/25 04:07:46;;;;;;;;;1.00;0.25;;;;;15.77;71.70;101319.28;5057112;28;68099;-75
2022/10/25 04:10:11;;;;;;;;;4.00;1.00;;;;;15.75;71.55;101315.81;5057235;28;66498;-76
2022/10/25 04:12:37;;;;;;;;;2.50;1.00;;;;;15.76;71.17;101320.16;5057117;28;74084;-75
2022/10/25 04:15:02;;;;;;;;;1.50;1.00;;;;;15.78;71.70;101326.22;5057135;28;62963;-75
2022/10/25 04:17:28;;;;;;;;;3.00;0.25;;;;;15.77;71.42;101325.38;5058119;28;45287;-75
2022/10/25 04:19:53;;;;;;;;;1.25;0.00;;;;;15.78;71.27;101323.59;5057896;28;45489;-77
2022/10/25 04:22:18;;;;;;;;;2.25;0.00;;;;;15.80;71.09;101322.59;5057860;28;47075;-75
2022/10/25 04:24:44;;;;;;;;;1.25;0.25;;;;;15.83;71.44;101316.38;5056264;28;47381;-75
2022/10/25 04:27:09;;;;;;;;;1.50;1.00;;;;;15.84;71.25;101321.56;5057954;28;45384;-75
2022/10/25 04:29:35;;;;;;;;;4.00;0.00;;;;;15.83;71.10;101322.47;5056870;28;70498;-75
2022/10/25 04:32:00;;;;;;;;;0.00;0.00;;;;;15.85;71.08;101332.91;5039867;28;45904;-75
2022/10/25 04:34:25;;;;;;;;;0.00;0.00;;;;;15.85;70.94;101327.66;5056158;28;73196;-74
2022/10/25 04:36:51;;;;;;;;;3.00;1.00;;;;;15.86;70.94;101329.34;5057414;28;52194;-75
2022/10/25 04:39:16;;;;;;;;;1.00;0.75;;;;;15.86;70.84;101321.47;5057279;28;57312;-75
2022/10/25 04:41:41;;;;;;;;;2.00;1.00;;;;;15.85;71.01;101314.53;5056666;28;69475;-75
2022/10/25 04:44:07;;;;;;;;;0.50;0.00;;;;;15.83;71.02;101321.63;5057513;28;45308;-75
2022/10/25 04:46:32;;;;;;;;;0.50;0.00;;;;;15.81;71.21;101324.31;5057734;28;45476;-75
2022/10/25 04:48:58;;;;;;;;;0.75;0.00;;;;;15.81;70.85;101324.31;5057230;28;45266;-75
2022/10/25 04:51:23;;;;;;;;;3.25;0.00;;;;;15.80;71.00;101322.59;5057375;28;47075;-75
2022/10/25 04:53:48;;;;;;;;;2.00;0.75;;;;;15.78;70.89;101318.34;5056674;28;63247;-75
2022/10/25 04:56:14;;;;;;;;;2.00;1.00;;;;;15.77;71.29;101327.16;5039605;28;45696;-75
2022/10/25 04:58:39;;;;;;;;;2.00;1.00;;;;;15.77;71.10;101327.16;5057539;28;45331;-75
2022/10/25 05:01:08;;;;;;;;;2.50;1.50;;;;;15.75;71.57;101329.81;5056277;28;72447;-75
2022/10/25 05:03:34;;;;;;;;;4.50;1.00;;;;;15.72;71.28;101335.16;5057011;28;46409;-75
2022/10/25 05:06:09;;;;;;;;;2.00;0.50;;;;;15.70;71.70;101333.53;5039530;28;45500;-75
2022/10/25 05:08:39;;;;;;;;;2.00;2.00;;;;;15.65;71.71;101339.78;5022596;28;45564;-75
2022/10/25 05:11:05;;;;;;;;;1.00;1.00;;;;;15.61;72.12;101343.47;5057108;28;46614;-75
2022/10/25 05:13:31;;;;;;;;;1.00;1.00;;;;;15.55;72.23;101335.84;5057019;28;45473;-75
2022/10/25 05:15:57;;;;;;;;;2.00;1.00;;;;;15.50;73.10;101337.78;5057225;28;45387;-75
2022/10/25 05:18:23;;;;;;;;;6.00;1.00;;;;;15.48;72.81;101334.38;5056778;28;45362;-76
2022/10/25 05:20:52;;;;;;;;;2.50;1.00;;;;;15.48;73.31;101331.75;5038656;28;47252;-75
2022/10/25 05:23:18;;;;;;;;;3.00;1.50;;;;;15.49;73.13;101333.47;5057150;28;45728;-75
2022/10/25 05:25:43;;;;;;;;;0.25;0.25;;;;;15.49;73.54;101336.94;5056638;28;48663;-75
2022/10/25 05:28:08;;;;;;;;;1.25;1.00;;;;;15.46;73.36;101331.81;5056105;28;68983;-75
2022/10/25 05:30:33;;;;;;;;;3.75;1.00;;;;;15.44;73.70;101338.91;5055789;28;76732;-75
2022/10/25 05:32:59;;;;;;;;;2.00;1.00;;;;;15.41;73.60;101343.41;5054310;28;75500;-75
2022/10/25 05:35:24;;;;;;;;;0.75;0.75;;;;;15.38;73.73;101346.13;5055535;28;61477;-75
2022/10/25 05:37:49;;;;;;;;;3.50;1.25;;;;;15.36;73.64;101343.59;5055896;28;68200;-75
2022/10/25 05:40:15;;;;;;;;;0.75;0.75;;;;;15.31;73.82;101355.19;5055618;28;75566;-75
2022/10/25 05:42:40;;;;;;;;;3.50;1.00;;;;;15.25;74.05;101357.13;5055647;28;71783;-75
2022/10/25 05:45:06;;;;;;;;;1.00;1.00;;;;;15.22;74.23;101348.53;5056497;28;45438;-75
2022/10/25 05:47:31;;;;;;;;;4.00;2.00;;;;;15.21;74.22;101346.78;5056277;28;45296;-75
2022/10/25 05:49:56;;;;;;;;;1.75;1.75;;;;;15.19;74.31;101341.63;5055429;28;75691;-75
2022/10/25 05:52:22;;;;;;;;;4.25;2.50;;;;;15.17;74.98;101350.47;5056278;28;49264;-76
2022/10/25 05:54:47;;;;;;;;;2.25;1.00;;;;;15.14;74.80;101340.09;5055585;28;65571;-75
2022/10/25 05:57:12;;;;;;;;;1.75;1.00;;;;;15.15;74.94;101344.41;5055699;28;64894;-75
2022/10/25 05:59:37;;;;;;;;;3.50;2.75;;;;;15.16;74.91;101348.78;5056309;28;47801;-75
2022/10/25 06:02:03;;;;;;;;;4.00;2.75;;;;;15.19;75.06;101351.25;5054947;28;66505;-73
2022/10/25 06:04:31;;;;;;;;;5.50;1.50;;;;;15.22;74.75;101357.22;5038445;28;45363;-75
2022/10/25 06:06:57;;;;;;;;;3.00;2.75;;;;;15.23;74.83;101351.09;5038467;28;45600;-75
2022/10/25 06:09:22;;;;;;;;;4.25;3.00;;;;;15.24;75.07;101347.53;5056051;28;46249;-75
2022/10/25 06:11:47;;;;;;;;;6.00;2.00;;;;;15.26;75.23;101348.31;5056337;28;45251;-75
2022/10/25 06:14:13;;;;;;;;;3.50;1.75;;;;;15.28;75.25;101349.16;5055280;28;64175;-75
2022/10/25 06:16:38;;;;;;;;;5.00;3.00;;;;;15.33;75.58;101358.59;5054933;28;70388;-75
2022/10/25 06:19:03;;;;;;;;;4.00;2.00;;;;;15.35;75.52;101357.63;5037829;28;45958;-74
2022/10/25 06:21:29;;;;;;;;;5.00;2.00;;;;;15.36;75.26;101355.84;5037317;28;66113;-74
2022/10/25 06:23:55;;;;;;;;;5.50;2.00;;;;;15.38;75.33;101349.63;5056154;28;45785;-74
2022/10/25 06:26:25;;;;;;;;;4.00;1.75;;;;;15.41;75.06;101356.53;5056057;28;45973;-75
2022/10/25 06:28:55;;;;;;;;;4.50;2.00;;;;;15.42;75.03;101360.88;5055752;28;46478;-75
2022/10/25 06:31:21;;;;;;;;;4.00;2.50;;;;;15.42;75.51;101366.97;5037734;28;45634;-75
2022/10/25 06:33:46;;;;;;;;;8.50;3.00;;;;;15.46;74.86;101368.53;5055829;28;45417;-74
2022/10/25 06:36:15;;;;;;;;;2.00;1.25;;;;;15.49;75.02;101368.44;5055790;28;45264;-73
2022/10/25 06:38:41;;;;;;;;;7.25;3.50;;;;;15.53;74.84;101366.53;5055646;28;45549;-74
2022/10/25 06:41:11;;;;;;;;;4.00;2.75;;;;;15.57;74.84;101367.28;5055854;28;45694;-73
2022/10/25 06:43:37;;;;;;;;;3.00;1.50;;;;;15.57;74.38;101373.38;5055809;28;45364;-74
2022/10/25 06:46:08;;;;;;;;;3.25;1.00;;;;;15.58;74.06;101382.97;5053883;28;45494;-74
2022/10/25 06:48:33;;;;;;;;;5.00;3.00;;;;;15.59;73.64;101375.94;5037165;28;47264;-75
2022/10/25 06:51:01;;;;;;;;;2.00;1.00;;;;;15.58;73.31;101379.47;5055754;28;45366;-75
2022/10/25 06:53:26;;;;;;;;;1.25;1.00;;;;;15.58;73.38;101380.34;5055629;28;45378;-75
2022/10/25 06:55:52;;;;;;;;;4.00;1.00;;;;;15.59;73.05;101379.41;5055657;28;45281;-73
2022/10/25 06:58:17;;;;;;;;;1.50;1.50;;;;;15.61;73.29;101388.06;5054581;28;75621;-74
2022/10/25 07:00:42;;;;;;;;;3.50;1.75;;;;;15.67;73.10;101386.97;5054092;28;73680;-74
2022/10/25 07:03:08;;;;;;;;;1.25;1.00;;;;;15.70;73.68;101375.53;5053412;28;70118;-74
2022/10/25 07:05:33;;;;;;;;;2.50;2.00;;;;;15.70;73.55;101384.25;5054323;28;45294;-74
2022/10/25 07:07:58;;;;;;;;;3.50;1.50;;;;;15.74;73.71;101385.00;5054692;28;68518;-74
2022/10/25 07:10:24;;;;;;;;;1.50;1.00;;;;;15.77;73.48;101385.75;5054716;28;64621;-73
2022/10/25 07:12:49;;;;;;;;;3.75;1.50;;;;;15.80;73.53;101384.75;5054365;28;70008;-74
2022/10/25 07:15:14;;;;;;;;;3.75;1.75;;;;;15.86;73.54;101388.00;5054314;28;62533;-74
2022/10/25 07:17:40;;;;;;;;;4.00;1.75;;;;;15.92;73.37;101389.50;5054369;28;69136;-75
2022/10/25 07:20:06;;;;;;;;;4.75;2.50;;;;;15.99;72.95;101396.22;5037033;28;45333;-74
2022/10/25 07:22:31;;;;;;;;;3.50;1.00;;;;;16.04;72.89;101399.50;5055404;28;45248;-74
2022/10/25 07:24:57;;;;;;;;;4.50;2.00;;;;;16.08;72.82;101397.59;5055263;28;45258;-75
2022/10/25 07:27:22;;;;;;;;;3.00;2.00;;;;;16.16;72.78;101389.41;5054721;28;47002;-74
2022/10/25 07:29:48;;;;;;;;;1.50;1.00;;;;;16.18;72.86;101404.19;5046491;28;65612;-74
2022/10/25 07:32:13;;;;;;;;;2.50;2.00;;;;;16.17;72.85;101405.09;5051886;28;45465;-74
2022/10/25 07:34:39;;;;;;;;;5.00;2.00;;;;;16.19;72.45;101405.03;5054628;28;45370;-74
2022/10/25 07:37:05;;;;;;;;;3.75;1.00;;;;;16.21;72.34;101417.19;5040806;28;72461;-74
2022/10/25 07:39:31;;;;;;;;;4.50;1.75;;;;;16.24;72.60;101408.31;5034382;28;45364;-74
2022/10/25 07:41:56;;;;;;;;;2.25;1.25;;;;;16.27;72.30;101410.84;5017154;28;45842;-74
2022/10/25 07:44:22;;;;;;;;;4.75;1.75;;;;;16.31;72.31;101407.16;5046492;28;58064;-74
2022/10/25 07:46:48;;;;;;;;;3.00;2.00;;;;;16.32;72.37;101408.84;5054610;28;45351;-73
2022/10/25 07:49:14;;;;;;;;;1.25;1.00;;;;;16.33;72.40;101412.34;5054540;28;45477;-74
2022/10/25 07:51:39;;;;;;;;;2.00;2.00;;;;;16.37;72.27;101416.53;5054985;28;45542;-74
2022/10/25 07:54:05;;;;;;;;;3.00;1.25;;;;;16.41;71.97;101418.97;5054787;28;45409;-74
2022/10/25 07:56:30;;;;;;;;;1.50;1.50;;;;;16.42;72.05;101420.69;5036675;28;46301;-73
2022/10/25 07:58:56;;;;;;;;;2.25;2.00;;;;;16.51;71.88;101426.47;5055878;28;45394;-74
2022/10/25 08:01:23;;;;;;;;;6.50;2.00;;;;;16.58;71.44;101420.88;5057932;28;45390;-74
2022/10/25 08:03:49;;;;;;;;;4.50;2.00;;;;;16.61;71.18;101431.25;5058094;28;45389;-74
2022/10/25 08:06:15;;;;;;;;;4.00;1.00;;;;;16.60;70.89;101432.19;5039697;28;46841;-74
2022/10/25 08:08:40;;;;;;;;;3.50;1.75;;;;;16.59;71.15;101425.22;5056630;28;73176;-74
2022/10/25 08:11:08;;;;;;;;;2.00;1.50;;;;;16.61;71.04;101425.16;5057364;28;55924;-74
2022/10/25 08:13:35;;;;;;;;;7.50;2.00;;;;;16.62;70.85;101414.56;5057545;28;45414;-74
2022/10/25 08:16:01;;;;;;;;;6.00;2.75;;;;;16.66;70.88;101417.94;5057706;28;47104;-74
2022/10/25 08:18:26;;;;;;;;;2.00;2.00;;;;;16.73;70.91;101415.88;5039581;28;45494;-74
2022/10/25 08:20:51;;;;;;;;;3.50;2.25;;;;;16.74;70.41;101414.97;5057682;28;45227;-74
2022/10/25 08:23:17;;;;;;;;;3.25;2.00;;;;;16.78;70.69;101409.47;5057594;28;49943;-75
2022/10/25 08:25:43;;;;;;;;;4.50;2.25;;;;;16.83;70.34;101407.53;5057493;28;45368;-74
2022/10/25 08:28:08;;;;;;;;;2.00;2.00;;;;;16.93;70.73;101409.75;5056464;28;66860;-74
2022/10/25 08:30:33;;;;;;;;;4.00;2.00;;;;;17.05;70.75;101405.72;5021960;28;69225;-74
2022/10/25 08:32:59;;;;;;;;;4.00;2.00;;;;;17.17;69.88;101399.91;5038430;28;69521;-74
2022/10/25 08:35:24;;;;;;;;;3.00;1.00;;;;;17.24;69.54;101398.69;5056399;28;63785;-74
2022/10/25 08:37:49;;;;;;;;;5.75;1.00;;;;;17.31;68.84;101407.16;5043296;28;69187;-74
2022/10/25 08:40:32;;;;;;;;;3.00;2.50;;;;;17.34;68.82;101396.50;5036398;28;69346;-74
2022/10/25 08:43:23;;;;;;;;;3.25;2.00;;;;;17.34;67.61;101393.84;5020112;28;45525;-74
2022/10/25 08:46:02;;;;;;;;;1.00;1.00;;;;;17.25;67.66;101400.38;5057153;28;46561;-74
2022/10/25 08:48:38;;;;;;;;;2.00;1.00;;;;;17.20;67.48;101395.34;5039518;28;45597;-74
2022/10/25 08:51:11;;;;;;;;;2.00;1.00;;;;;17.22;67.98;101398.78;5057299;28;45429;-75
2022/10/25 08:53:47;;;;;;;;;3.00;2.00;;;;;17.20;67.31;101394.50;5057382;28;45430;-74
2022/10/25 08:56:15;;;;;;;;;6.50;1.00;;;;;17.15;66.98;101401.75;5038979;28;46537;-74
2022/10/25 08:58:59;;;;;;;;;0.00;0.00;;;;;17.12;66.43;101397.47;5039041;28;45652;-74
2022/10/25 09:01:30;;;;;;;;;4.50;0.00;;;;;17.15;66.96;101394.72;5039050;28;45360;-74
2022/10/25 09:03:58;;;;;;;;;2.00;1.00;;;;;17.17;67.27;101398.13;5057253;28;45343;-74
2022/10/25 09:06:55;;;;;;;;;1.75;1.75;;;;;17.16;66.55;101398.19;5057020;28;47151;-74
2022/10/25 09:09:41;;;;;;;;;1.00;1.00;;;;;17.25;66.44;101394.28;5038212;28;45704;-74
2022/10/25 09:12:22;;;;;;;;;2.00;0.00;;;;;17.36;65.88;101400.75;5056771;28;45358;-74
2022/10/25 09:14:58;;;;;;;;;1.00;1.00;;;;;17.51;64.96;101408.84;5038939;28;45405;-74
2022/10/25 09:17:43;;;;;;;;;2.00;0.00;;;;;17.75;65.92;101404.19;5038797;28;46671;-74
2022/10/25 09:20:36;;;;;;;;;1.25;1.00;;;;;17.98;63.87;101409.22;5056614;28;45631;-74
2022/10/25 09:23:26;;;;;;;;;3.00;0.50;;;;;17.90;63.07;101406.09;5038761;28;45351;-74
2022/10/25 09:26:21;;;;;;;;;0.00;0.00;;;;;17.69;62.85;101410.59;5056361;28;45391;-74
2022/10/25 09:28:56;;;;;;;;;0.00;0.00;;;;;17.56;63.35;101397.19;5056372;28;46052;-73
2022/10/25 09:31:23;;;;;;;;;0.00;0.00;;;;;17.51;63.20;101399.16;5038521;28;45386;-73
2022/10/25 09:33:52;;;;;;;;;0.00;0.00;;;;;17.46;62.99;101395.94;5038462;28;45632;-74
2022/10/25 09:36:18;;;;;;;;;0.00;0.00;;;;;17.44;62.06;101396.91;5038815;28;45371;-74
2022/10/25 09:38:48;;;;;;;;;0.00;0.00;;;;;17.41;62.89;101395.28;5055247;28;74194;-74
2022/10/25 09:41:34;;;;;;;;;0.00;0.00;;;;;17.45;63.09;101393.34;5038447;28;45431;-73
2022/10/25 09:44:03;;;;;;;;;0.50;0.00;;;;;17.48;63.10;101383.53;5038304;28;45471;-74
2022/10/25 09:47:12;;;;;;;;;2.50;0.00;;;;;17.51;62.68;101390.44;5022019;28;45411;-73
2022/10/25 09:49:43;;;;;;;;;0.00;0.00;;;;;17.51;62.98;101382.53;4957939;28;46375;-72
2022/10/25 09:53:02;;;;;;;;;2.00;1.00;;;;;17.55;63.15;101382.31;4974682;28;45714;-74
2022/10/25 09:55:36;;;;;;;;;1.50;0.00;;;;;17.64;62.85;101382.78;4897241;29;45485;-75
2022/10/25 09:58:01;;;;;;;;;0.00;0.00;;;;;17.69;63.17;101384.28;4897390;29;45634;-74
2022/10/25 10:00:27;;;;;;;;;1.25;0.00;;;;;17.70;62.75;101378.09;4897380;29;47204;-74
2022/10/25 10:02:53;;;;;;;;;0.75;0.75;;;;;17.73;62.80;101379.72;4881725;29;45553;-75
2022/10/25 10:05:20;;;;;;;;;3.00;0.00;;;;;17.79;63.02;101382.03;4897618;29;45372;-75
2022/10/25 10:07:46;;;;;;;;;0.25;0.00;;;;;17.83;62.52;101386.25;4897329;29;45520;-75
2022/10/25 10:10:15;;;;;;;;;1.50;0.00;;;;;17.85;61.71;101386.19;4896981;29;45502;-75
2022/10/25 10:13:02;;;;;;;;;1.50;0.00;;;;;17.85;62.32;101379.16;4897562;29;45749;-74
2022/10/25 10:15:31;;;;;;;;;0.00;0.00;;;;;17.87;61.90;101379.94;4897160;28;45470;-75
2022/10/25 10:18:22;;;;;;;;;0.50;0.00;;;;;17.94;62.14;101373.44;4897260;29;45427;-75
2022/10/25 10:21:05;;;;;;;;;0.00;0.00;;;;;18.04;61.91;101367.72;4896972;29;45611;-75
2022/10/25 10:23:52;;;;;;;;;0.50;0.00;;;;;18.14;61.63;101368.94;4897138;29;45450;-75
2022/10/25 10:26:27;;;;;;;;;0.50;0.00;;;;;18.24;62.10;101364.03;4934240;28;45484;-75
2022/10/25 10:29:08;;;;;;;;;2.00;0.25;;;;;18.36;61.44;101360.78;4991054;28;45481;-75
2022/10/25 10:31:40;;;;;;;;;1.25;1.00;;;;;18.45;61.01;101365.59;5035685;28;45526;-75
2022/10/25 10:34:19;;;;;;;;;0.00;0.00;;;;;18.58;61.26;101369.28;5034185;28;45461;-74
2022/10/25 10:36:44;;;;;;;;;2.00;0.00;;;;;18.72;61.35;101359.78;5035712;28;45320;-76
2022/10/25 10:39:22;;;;;;;;;2.00;0.50;;;;;18.90;61.17;101363.25;5035020;28;45520;-75
2022/10/25 10:42:12;;;;;;;;;1.25;0.75;;;;;19.04;60.52;101366.00;5035599;28;47285;-75
2022/10/25 10:44:38;;;;;;;;;0.00;0.00;;;;;19.20;60.86;101367.78;5035308;28;45508;-74
2022/10/25 10:47:11;;;;;;;;;1.00;1.00;;;;;19.31;59.45;101360.97;5028782;28;45717;-74
2022/10/25 10:49:38;;;;;;;;;1.75;0.00;;;;;19.36;59.32;101358.09;5026294;28;45699;-75
2022/10/25 10:52:04;;;;;;;;;0.00;0.00;;;;;19.53;59.13;101355.34;5027372;28;45652;-75
2022/10/25 10:54:33;;;;;;;;;2.00;0.00;;;;;19.77;59.20;101356.72;5042879;28;45435;-73
2022/10/25 10:57:01;;;;;;;;;0.00;0.00;;;;;20.05;58.37;101351.50;5026678;28;45529;-75
2022/10/25 10:59:39;;;;;;;;;0.00;0.00;;;;;20.42;59.15;101343.19;5026214;28;45711;-74
2022/10/25 11:02:20;;;;;;;;;0.00;0.00;;;;;21.00;58.47;101341.38;5043191;28;45437;-75
2022/10/25 11:04:50;;;;;;;;;0.00;0.00;;;;;22.56;57.07;101332.81;5028090;28;45485;-75
2022/10/25 11:07:23;;;;;;;;;0.00;0.00;;;;;24.68;53.30;101340.19;5027690;28;45732;-75
2022/10/25 11:09:48;;;;;;;;;0.00;0.00;;;;;25.97;49.50;101326.16;5028013;28;45702;-74
2022/10/25 11:12:13;;;;;;;;;0.00;0.00;;;;;27.51;48.78;101331.34;5026121;28;51588;-74
2022/10/25 11:14:39;;;;;;;;;2.00;0.00;;;;;29.12;45.59;101335.81;5026353;28;72119;-74
2022/10/25 11:17:19;;;;;;;;;0.00;0.00;;;;;30.27;42.52;101328.75;5027740;28;45453;-73
2022/10/25 11:19:56;;;;;;;;;0.25;0.25;;;;;31.39;40.81;101327.69;5039034;28;45743;-72
2022/10/25 11:22:53;;;;;;;;;4.00;1.00;;;;;32.40;39.51;101329.09;5047676;28;48174;-72
2022/10/25 11:25:40;;;;;;;;;2.00;0.00;;;;;33.39;35.60;101325.09;5044821;28;45401;-73
2022/10/25 11:28:30;;;;;;;;;1.00;0.50;;;;;33.55;33.10;101317.69;5045928;28;45449;-73
2022/10/25 11:31:14;;;;;;;;;0.25;0.00;;;;;33.75;32.33;101320.75;5047870;28;45502;-73
2022/10/25 11:33:50;;;;;;;;;2.25;0.25;;;;;33.96;33.89;101310.28;5045504;28;47035;-73
2022/10/25 11:36:27;;;;;;;;;1.25;0.25;;;;;33.97;31.30;101315.47;5014151;28;45426;-73